DBBB/COO METAR and TAF weather

Enter ICAO airport designator
Station Type Date Time Source
DBBB METAR 2019/12/13 14:00 UTC NOAA

DBBB 131400Z 16008KT 120V200 9999 TS SCT013 FEW023CB 31/25 Q1010 NOSIG


Station Type Date Time Source
DBBB Decoded METAR 2019/12/13 14:00 UTC NOAA

Cotonou, Benin (DBBB) 06-21N 002-23E 9M
Dec 13, 2019 - 09:00 AM EST / 2019.12.13 1400 UTC
Wind: from the SSE (160 degrees) at 9 MPH (8 KT) (direction variable):0
Visibility: greater than 7 mile(s):0
Sky conditions: partly cloudy
Weather: thunder; Cumulonimbus clouds observed
Temperature: 87 F (31 C)
Heat index: 97.5 F (36.4 C):1
Dew Point: 77 F (25 C)
Relative Humidity: 70%
Pressure (altimeter): 29.83 in. Hg (1010 hPa)
ob: DBBB 131400Z 16008KT 120V200 9999 TS SCT013 FEW023CB 31/25 Q1010 NOSIG
cycle: 14

Station Type Date Time Source
DBBB TAF 2019/12/13 12:03 UTC NOAA

TAF TAF DBBB 131100Z 1312/1418 22010KT 9999 SCT012 PROB30
TEMPO 1314/1320 BKN012 FEW023CB

Example: see airport list